Weather History for KOSC - October, 2013

Change the Weather History Date:

Saturday, October 5, 2013

  Actual Average Record
Temperature  
Mean Temperature 61 °F -  
Max Temperature 63 °F 60 °F 86 °F (2005)
Min Temperature 59 °F 41 °F 24 °F (2004)
Degree Days  
Heating Degree Days 4    
Growing Degree Days 11 (Base 50)    
Moisture  
Dew Point 59 °F    
Average Humidity 95    
Maximum Humidity 99    
Minimum Humidity 90    
Precipitation  
Precipitation 0.38 in - - ()
Sea Level Pressure  
Sea Level Pressure 30.02 in    
Wind  
Wind Speed 11 mph (ENE)    
Max Wind Speed 17 mph    
Max Gust Speed 24 mph    
Visibility 6 miles    
Events Fog , Rain    
Averages and records for this station are not official NWS values.
T = Trace of Precipitation, MM = Missing Value Source: NWS Daily Summary

Daily Weather History Graph

Daily Weather History Graph

Search for Another Location

Airport or City:

Trip Planner

Search our weather history database for the weather conditions in past years. The results will help you decide how hot, cold, wet, or windy it might be!

Date:

Astronomy

Oct. 05, 2013 Rise Set
Actual Time 7:36 AM EDT 7:06 PM EDT
Civil Twilight 7:07 AM EDT 7:35 PM EDT
Nautical Twilight 6:33 AM EDT 8:09 PM EDT
Astronomical Twilight 5:59 AM EDT 8:42 PM EDT
Moon 8:17 AM EDT (10/5) 7:20 PM EDT (10/5)
Length of Visible Light 12h 27m
Length of Day
11h 29m
New Moon, 0% of the Moon is Illuminated
Oct 5
New Moon
Oct 11
First Quarter
Oct 18
Full
Oct 26
Last Quarter
Nov 3
New

Hourly Weather History & Observations

Time (EDT) Temp. Dew Point Humidity Pressure Visibility Wind Dir Wind Speed Gust Speed Precip Events Conditions
12:13 AM 59.4 °F 57.4 °F 93% 30.07 in 10.0 mi NE 10.4 mph - N/A   Overcast
12:33 AM 59.4 °F 57.4 °F 93% 30.08 in 10.0 mi NE 9.2 mph - N/A   Overcast
12:54 AM 59.4 °F 57.4 °F 93% 30.09 in 10.0 mi NE 6.9 mph - N/A   Overcast
1:13 AM 59.2 °F 57.2 °F 93% 30.08 in 10.0 mi NE 9.2 mph - N/A   Overcast
1:33 AM 59.4 °F 57.2 °F 93% 30.08 in 10.0 mi NNE 10.4 mph - N/A   Overcast
1:54 AM 59.5 °F 57.2 °F 92% 30.08 in 10.0 mi NE 9.2 mph - N/A   Overcast
2:13 AM 59.7 °F 57.2 °F 91% 30.08 in 10.0 mi NE 11.5 mph - N/A   Overcast
2:33 AM 59.5 °F 57.2 °F 92% 30.07 in 10.0 mi NE 11.5 mph - N/A   Overcast
2:54 AM 59.4 °F 56.7 °F 91% 30.07 in 10.0 mi NE 11.5 mph 19.6 mph N/A   Overcast
3:13 AM 59.4 °F 56.5 °F 90% 30.07 in 10.0 mi NE 12.7 mph - N/A   Overcast
3:33 AM 59.4 °F 56.5 °F 90% 30.06 in 10.0 mi NE 13.8 mph - N/A   Overcast
3:54 AM 59.4 °F 56.5 °F 90% 30.06 in 10.0 mi ENE 11.5 mph - N/A   Overcast
4:13 AM 59.4 °F 56.7 °F 91% 30.06 in 10.0 mi ENE 11.5 mph 17.3 mph N/A   Overcast
4:34 AM 59.7 °F 57.0 °F 91% 30.07 in 10.0 mi ENE 10.4 mph - N/A   Overcast
4:54 AM 59.5 °F 57.0 °F 91% 30.07 in 10.0 mi NE 11.5 mph 17.3 mph N/A   Overcast
5:13 AM 59.5 °F 57.2 °F 92% 30.08 in 10.0 mi NE 12.7 mph - N/A   Overcast
5:34 AM 59.5 °F 57.2 °F 92% 30.07 in 10.0 mi ENE 11.5 mph - N/A   Overcast
5:54 AM 59.4 °F 57.2 °F 93% 30.07 in 10.0 mi ENE 11.5 mph - N/A   Overcast
6:13 AM 59.5 °F 57.2 °F 92% 30.06 in 10.0 mi ENE 13.8 mph - N/A   Overcast
6:34 AM 59.9 °F 57.4 °F 91% 30.06 in 10.0 mi ENE 13.8 mph 17.3 mph N/A   Overcast
6:54 AM 59.9 °F 57.4 °F 91% 30.06 in 10.0 mi East 10.4 mph - N/A   Overcast
7:13 AM 60.1 °F 57.4 °F 91% 30.07 in 10.0 mi East 10.4 mph - N/A   Overcast
7:33 AM 59.9 °F 57.6 °F 92% 30.07 in 10.0 mi ENE 11.5 mph - N/A   Overcast
7:54 AM 59.9 °F 57.7 °F 93% 30.07 in 10.0 mi ENE 13.8 mph - N/A   Overcast
8:13 AM 59.9 °F 57.7 °F 93% 30.06 in 10.0 mi ENE 11.5 mph 17.3 mph N/A   Overcast
8:33 AM 59.9 °F 58.1 °F 94% 30.07 in 10.0 mi ENE 10.4 mph - N/A   Overcast
8:54 AM 60.1 °F 58.1 °F 93% 30.07 in 10.0 mi ENE 9.2 mph - N/A   Overcast
9:13 AM 59.9 °F 58.3 °F 94% 30.07 in 10.0 mi ENE 10.4 mph - N/A   Overcast
9:33 AM 59.9 °F 58.3 °F 94% 30.07 in 10.0 mi ENE 11.5 mph 17.3 mph N/A   Overcast
9:54 AM 59.5 °F 58.5 °F 96% 30.07 in 10.0 mi ENE 9.2 mph - N/A Rain Light Rain
10:13 AM 59.4 °F 58.5 °F 97% 30.09 in 7.0 mi NE 5.8 mph - 0.01 in Rain Rain
10:33 AM 59.2 °F 58.5 °F 97% 30.09 in 2.5 mi NE 8.1 mph - 0.16 in Rain Heavy Rain
10:54 AM 59.2 °F 58.5 °F 97% 30.08 in 4.0 mi NE 11.5 mph - 0.25 in Rain Heavy Rain
11:13 AM 59.9 °F 59.2 °F 97% 30.06 in 5.0 mi NE 12.7 mph 23.0 mph 0.04 in Rain Rain
11:33 AM 59.4 °F 58.6 °F 97% 30.06 in 7.0 mi NE 12.7 mph - 0.10 in Rain Light Rain
11:54 AM 60.1 °F 59.2 °F 97% 30.03 in 10.0 mi ENE 17.3 mph - 0.10 in   Overcast
12:13 PM 60.8 °F 59.7 °F 96% 30.03 in 10.0 mi NE 13.8 mph 23.0 mph N/A   Overcast
12:33 PM 60.6 °F 59.0 °F 94% 30.04 in 10.0 mi ENE 15.0 mph 21.9 mph N/A   Overcast
12:54 PM 60.3 °F 58.5 °F 94% 30.01 in 10.0 mi East 15.0 mph 24.2 mph N/A   Overcast
1:13 PM 60.4 °F 58.8 °F 94% 30.03 in 10.0 mi East 9.2 mph 16.1 mph N/A Rain Light Rain
1:34 PM 60.3 °F 59.0 °F 96% 30.02 in 10.0 mi East 10.4 mph - N/A   Overcast
1:53 PM 60.8 °F 59.2 °F 94% 30.02 in 10.0 mi East 12.7 mph 16.1 mph N/A   Overcast
2:13 PM 61.0 °F 59.4 °F 94% 30.01 in 10.0 mi East 10.4 mph - N/A   Overcast
2:34 PM 60.8 °F 59.5 °F 96% 30.00 in 5.0 mi East 10.4 mph 17.3 mph N/A   Overcast
2:54 PM 60.8 °F 60.1 °F 97% 30.00 in 1.0 mi ESE 9.2 mph - N/A   Overcast
3:13 PM 61.3 °F 60.8 °F 98% 30.00 in 0.8 mi ESE 9.2 mph - N/A   Overcast
3:34 PM 61.7 °F 61.2 °F 98% 29.99 in 0.8 mi East 8.1 mph - N/A   Overcast
3:54 PM 62.1 °F 61.7 °F 99% 29.98 in 0.8 mi East 8.1 mph - N/A   Overcast
4:13 PM 62.2 °F 61.7 °F 98% 29.98 in 0.5 mi East 5.8 mph - N/A Fog Fog
4:34 PM 62.6 °F 62.1 °F 98% 29.97 in 0.5 mi East 4.6 mph - N/A Fog Fog
4:54 PM 62.8 °F 62.4 °F 99% 29.96 in 0.5 mi East 6.9 mph - N/A Fog Fog
5:13 PM 62.8 °F 62.6 °F 99% 29.96 in 0.8 mi East 4.6 mph - N/A   Overcast
5:34 PM 63.0 °F 62.6 °F 99% 29.96 in 0.8 mi East 4.6 mph - N/A   Overcast
5:53 PM 63.0 °F 62.6 °F 99% 29.96 in 0.2 mi ENE 5.8 mph - N/A Fog Fog
6:13 PM 63.0 °F 62.6 °F 99% 29.96 in 0.2 mi ENE 5.8 mph - N/A Fog Fog
6:34 PM 63.0 °F 62.6 °F 99% 29.96 in 0.2 mi East 5.8 mph - N/A Fog Fog
6:53 PM 63.0 °F 62.6 °F 99% 29.95 in 0.2 mi East 8.1 mph - N/A Fog Fog
7:13 PM 62.8 °F 62.4 °F 99% 29.96 in 0.5 mi East 9.2 mph - N/A Fog Fog
7:34 PM 62.6 °F 62.1 °F 98% 29.96 in 0.8 mi East 10.4 mph - N/A   Overcast
7:53 PM 62.6 °F 62.2 °F 99% 29.95 in 0.5 mi East 10.4 mph - N/A Fog Fog
8:13 PM 61.7 °F 61.5 °F 99% 29.95 in 0.8 mi East 13.8 mph - N/A   Overcast
8:34 PM 61.5 °F 61.0 °F 98% 29.95 in 1.2 mi East 13.8 mph 18.4 mph N/A   Overcast
8:53 PM 61.7 °F 61.2 °F 98% 29.95 in 1.5 mi East 10.4 mph - N/A   Overcast
9:13 PM 61.7 °F 61.2 °F 98% 29.95 in 1.8 mi East 10.4 mph - 0.01 in Rain Rain
9:34 PM 61.7 °F 61.3 °F 99% 29.94 in 2.0 mi East 11.5 mph 16.1 mph 0.02 in Rain Light Rain
9:53 PM 61.9 °F 61.7 °F 99% 29.93 in 5.0 mi East 11.5 mph 17.3 mph 0.02 in Rain Light Rain
10:14 PM 62.2 °F 61.7 °F 98% 29.93 in 5.0 mi East 12.7 mph - N/A   Light Drizzle
10:34 PM 62.6 °F 62.1 °F 98% 29.92 in 3.0 mi East 11.5 mph - N/A Rain Light Rain
10:53 PM 63.1 °F 62.6 °F 98% 29.90 in 2.5 mi East 12.7 mph 20.7 mph N/A Rain Light Rain
11:14 PM 63.0 °F 62.2 °F 97% 29.89 in 3.0 mi ESE 15.0 mph 23.0 mph N/A   Overcast
11:34 PM 63.0 °F 62.2 °F 97% 29.89 in 3.0 mi ESE 15.0 mph 19.6 mph N/A   Overcast
11:53 PM 63.1 °F 62.4 °F 97% 29.88 in 3.0 mi ESE 13.8 mph 19.6 mph 0.01 in Rain Rain